Time;durP1;ratioP1;P1;durP2;ratioP2;P2;SDS_P1;SDS_P2;PMS_P1;PMS_P2;Temp;Humidity;BMP_temperature;BMP_pressure;BME280_temperature;BME280_humidity;BME280_pressure;Samples;Min_cycle;Max_cycle;Signal;HPM_P1;HPM_P2
2022/10/26 00:31:40;;;;;;;21.38;10.00;;;9.20;99.90;;;;;;5289650;22;20056;-69
2022/10/26 00:34:06;;;;;;;21.27;9.07;;;9.10;99.90;;;;;;5071363;28;20393;-69
2022/10/26 00:36:31;;;;;;;19.85;9.20;;;9.10;99.90;;;;;;5070300;28;20045;-69
2022/10/26 00:38:57;;;;;;;21.15;10.35;;;9.10;99.90;;;;;;5055054;28;20045;-73
2022/10/26 00:41:25;;;;;;;27.55;9.73;;;9.20;99.90;;;;;;5071742;28;20052;-70
2022/10/26 00:43:52;;;;;;;20.75;9.48;;;9.20;99.90;;;;;;5055707;28;20051;-70
2022/10/26 00:46:34;;;;;;;24.65;10.07;;;9.20;99.90;;;;;;5070237;28;20126;-69
2022/10/26 00:49:10;;;;;;;21.10;9.73;;;9.10;99.90;;;;;;5054399;28;20083;-73
2022/10/26 00:51:43;;;;;;;21.80;9.45;;;9.10;99.90;;;;;;5071130;28;20053;-68
2022/10/26 00:54:14;;;;;;;25.75;9.23;;;9.10;99.90;;;;;;5071455;28;20536;-72
2022/10/26 00:56:41;;;;;;;22.40;10.30;;;9.00;99.90;;;;;;5072831;28;20036;-68
2022/10/26 00:59:10;;;;;;;22.73;9.45;;;9.00;99.90;;;;;;5071932;28;20044;-71
2022/10/26 01:01:39;;;;;;;21.83;9.00;;;9.00;99.90;;;;;;5070755;28;20434;-68
2022/10/26 01:04:05;;;;;;;17.73;8.65;;;9.00;99.90;;;;;;5069629;28;20048;-69
2022/10/26 01:06:33;;;;;;;23.42;8.95;;;8.90;99.90;;;;;;5055050;28;20044;-70
2022/10/26 01:08:59;;;;;;;20.27;9.25;;;8.90;99.90;;;;;;5055671;28;20055;-70
2022/10/26 01:11:25;;;;;;;20.35;9.10;;;8.90;99.90;;;;;;5054773;28;20397;-69
2022/10/26 01:13:53;;;;;;;18.58;9.00;;;8.90;99.90;;;;;;5071441;28;20044;-70
2022/10/26 01:16:37;;;;;;;21.63;8.75;;;8.80;99.90;;;;;;5074992;28;20148;-69
2022/10/26 01:19:30;;;;;;;19.50;9.23;;;8.80;99.90;;;;;;5081266;28;20485;-72
2022/10/26 01:21:58;;;;;;;16.48;8.45;;;8.80;99.90;;;;;;5051022;28;20496;-69
2022/10/26 01:24:48;;;;;;;22.13;9.60;;;8.90;99.90;;;;;;5070155;28;20127;-71
2022/10/26 01:27:26;;;;;;;22.15;9.40;;;8.80;99.90;;;;;;5071955;28;20040;-76
2022/10/26 01:30:10;;;;;;;22.08;8.27;;;8.80;99.90;;;;;;5073168;28;20044;-70
2022/10/26 01:33:09;;;;;;;19.58;8.48;;;8.70;99.90;;;;;;5074716;28;20389;-70
2022/10/26 01:35:47;;;;;;;20.70;9.48;;;8.70;99.90;;;;;;5073291;28;20080;-70
2022/10/26 01:38:50;;;;;;;19.83;8.68;;;8.70;99.90;;;;;;5074418;28;20056;-70
2022/10/26 01:41:28;;;;;;;21.80;8.80;;;8.70;99.90;;;;;;5072483;28;20468;-71
2022/10/26 01:44:13;;;;;;;19.38;8.70;;;8.70;99.90;;;;;;5074503;28;20045;-69
2022/10/26 01:46:44;;;;;;;18.20;8.55;;;8.70;99.90;;;;;;5074415;28;20048;-70
2022/10/26 01:49:12;;;;;;;19.15;8.75;;;8.70;99.90;;;;;;5074733;28;20047;-69
2022/10/26 01:51:41;;;;;;;20.90;8.82;;;8.70;99.90;;;;;;5074078;28;20388;-69
2022/10/26 01:54:07;;;;;;;19.83;8.48;;;8.70;99.90;;;;;;5074725;28;20059;-76
2022/10/26 01:56:37;;;;;;;25.08;9.15;;;8.80;99.90;;;;;;5073793;28;20406;-70
2022/10/26 01:59:20;;;;;;;26.00;8.95;;;8.80;99.90;;;;;;5074441;28;20055;-69
2022/10/26 02:01:50;;;;;;;21.10;8.68;;;8.80;99.90;;;;;;5073201;28;20622;-70
2022/10/26 02:05:00;;;;;;;19.00;8.32;;;8.80;99.90;;;;;;5072432;28;20058;-70
2022/10/26 02:07:50;;;;;;;21.70;9.32;;;8.80;99.90;;;;;;5074123;28;20048;-70
2022/10/26 02:10:43;;;;;;;21.52;9.75;;;8.80;99.90;;;;;;5073516;28;20107;-70
2022/10/26 02:13:12;;;;;;;18.25;8.98;;;8.80;99.90;;;;;;5073527;28;20051;-75
2022/10/26 02:15:45;;;;;;;23.90;9.18;;;8.80;99.90;;;;;;5072163;28;20102;-76
2022/10/26 02:18:20;;;;;;;24.85;9.35;;;8.80;99.90;;;;;;5073374;28;20056;-75
2022/10/26 02:20:53;;;;;;;24.30;9.45;;;8.80;99.90;;;;;;5072478;28;20058;-72
2022/10/26 02:23:22;;;;;;;20.38;9.63;;;8.80;99.90;;;;;;5073130;28;20045;-69
2022/10/26 02:25:55;;;;;;;21.35;10.25;;;8.80;99.90;;;;;;5073061;28;20084;-70
2022/10/26 02:28:26;;;;;;;20.48;9.98;;;8.80;99.90;;;;;;5072335;28;20049;-69
2022/10/26 02:30:54;;;;;;;24.05;10.45;;;8.80;99.90;;;;;;5071453;28;20102;-70
2022/10/26 02:33:21;;;;;;;20.55;10.60;;;8.80;99.90;;;;;;5073045;28;20101;-69
2022/10/26 02:35:50;;;;;;;26.73;10.95;;;8.80;99.90;;;;;;5071875;28;20052;-69
2022/10/26 02:38:18;;;;;;;21.30;11.32;;;8.90;99.90;;;;;;5072609;28;20071;-71
2022/10/26 02:40:49;;;;;;;23.65;11.13;;;8.90;99.90;;;;;;5072956;28;20066;-68
2022/10/26 02:43:21;;;;;;;22.38;11.10;;;8.90;99.90;;;;;;5073026;28;20151;-74
2022/10/26 02:46:09;;;;;;;25.08;11.60;;;9.00;99.90;;;;;;5071958;28;20079;-70
2022/10/26 02:48:35;;;;;;;26.88;11.35;;;9.00;99.90;;;;;;5072860;28;20437;-70
2022/10/26 02:51:12;;;;;;;25.55;11.77;;;9.10;99.90;;;;;;5072701;28;20041;-70
2022/10/26 02:54:01;;;;;;;24.45;12.60;;;9.10;99.90;;;;;;5073502;28;20193;-70
2022/10/26 02:56:51;;;;;;;22.17;11.32;;;9.10;99.90;;;;;;5072683;28;20052;-69
2022/10/26 02:59:21;;;;;;;25.77;12.27;;;9.20;99.90;;;;;;5072772;28;20045;-75
2022/10/26 03:01:47;;;;;;;30.55;12.70;;;9.20;99.90;;;;;;5072702;28;20101;-69
2022/10/26 03:04:13;;;;;;;27.65;12.20;;;9.20;99.90;;;;;;5071720;28;20044;-69
2022/10/26 03:06:39;;;;;;;23.27;12.90;;;9.20;99.90;;;;;;5071172;28;20483;-70
2022/10/26 03:09:04;;;;;;;24.10;12.40;;;9.20;99.90;;;;;;5072611;28;20040;-71
2022/10/26 03:11:30;;;;;;;24.30;12.35;;;9.30;99.90;;;;;;5072488;28;20044;-69
2022/10/26 03:13:56;;;;;;;28.77;12.05;;;9.20;99.90;;;;;;5072658;28;20052;-70
2022/10/26 03:16:21;;;;;;;25.85;13.15;;;9.20;99.90;;;;;;5071195;28;20127;-70
2022/10/26 03:18:47;;;;;;;27.70;12.73;;;9.20;99.90;;;;;;5072612;28;20048;-69
2022/10/26 03:21:13;;;;;;;28.38;13.15;;;9.20;99.90;;;;;;5072493;28;20048;-69
2022/10/26 03:23:38;;;;;;;25.58;12.35;;;9.20;99.90;;;;;;5072565;28;20161;-68
2022/10/26 03:26:04;;;;;;;25.80;12.23;;;9.30;99.90;;;;;;5071445;28;20044;-69
2022/10/26 03:28:30;;;;;;;27.02;13.82;;;9.30;99.90;;;;;;5071426;28;20044;-69
2022/10/26 03:30:56;;;;;;;30.33;12.73;;;9.30;99.90;;;;;;5053932;28;20088;-69
2022/10/26 03:33:22;;;;;;;22.95;12.65;;;9.30;99.90;;;;;;5071499;28;20060;-71
2022/10/26 03:35:54;;;;;;;26.15;13.32;;;9.20;99.90;;;;;;5072495;28;20088;-69
2022/10/26 03:38:20;;;;;;;26.52;12.70;;;9.20;99.90;;;;;;5072659;28;20123;-76
2022/10/26 03:40:47;;;;;;;27.15;12.57;;;9.20;99.90;;;;;;5072978;28;20149;-68
2022/10/26 03:43:13;;;;;;;25.73;12.60;;;9.20;99.90;;;;;;5054653;28;20047;-69
2022/10/26 03:45:39;;;;;;;27.10;12.30;;;9.10;99.90;;;;;;5055119;28;20070;-72
2022/10/26 03:48:04;;;;;;;25.88;12.35;;;9.20;99.90;;;;;;5072237;28;20123;-69
2022/10/26 03:50:30;;;;;;;27.88;12.05;;;9.10;99.90;;;;;;5072530;28;20044;-69
2022/10/26 03:52:56;;;;;;;29.67;12.70;;;9.10;99.90;;;;;;5076448;28;20072;-69
2022/10/26 03:55:22;;;;;;;30.52;12.80;;;9.10;99.90;;;;;;5075819;28;20114;-76
2022/10/26 03:57:47;;;;;;;25.23;12.50;;;9.20;99.90;;;;;;5058237;28;20087;-70
2022/10/26 04:00:16;;;;;;;27.48;13.20;;;9.20;99.90;;;;;;5074790;28;20045;-69
2022/10/26 04:02:52;;;;;;;28.55;12.90;;;9.10;99.90;;;;;;5074304;28;20080;-69
2022/10/26 04:05:18;;;;;;;29.33;13.07;;;9.10;99.90;;;;;;5076292;28;20044;-69
2022/10/26 04:07:43;;;;;;;28.55;13.32;;;9.10;99.90;;;;;;5075929;28;20279;-68
2022/10/26 04:10:09;;;;;;;24.48;12.35;;;9.10;99.90;;;;;;5074753;28;20130;-71
2022/10/26 04:12:37;;;;;;;25.58;12.95;;;9.10;99.90;;;;;;5075672;28;20048;-70
2022/10/26 04:15:05;;;;;;;26.05;12.23;;;9.20;99.90;;;;;;5075633;28;20128;-70
2022/10/26 04:17:31;;;;;;;29.77;12.77;;;9.20;99.90;;;;;;5075479;28;20052;-70
2022/10/26 04:19:57;;;;;;;28.92;13.07;;;9.30;99.90;;;;;;5075317;28;20113;-70
2022/10/26 04:22:22;;;;;;;23.98;12.30;;;9.30;99.90;;;;;;5075542;28;20048;-69
2022/10/26 04:24:48;;;;;;;29.23;12.85;;;9.40;99.90;;;;;;5057713;28;20418;-70
2022/10/26 04:27:14;;;;;;;25.40;12.40;;;9.50;99.90;;;;;;5074862;28;20388;-68
2022/10/26 04:29:40;;;;;;;27.05;12.35;;;9.50;99.90;;;;;;5075353;28;20130;-69
2022/10/26 04:32:07;;;;;;;26.42;12.60;;;9.50;99.90;;;;;;5075582;28;20114;-68
2022/10/26 04:34:33;;;;;;;24.20;11.75;;;9.60;99.90;;;;;;5057249;28;20060;-68
2022/10/26 04:36:58;;;;;;;24.80;12.23;;;9.60;99.90;;;;;;5075290;28;20128;-69
2022/10/26 04:39:24;;;;;;;23.27;11.77;;;9.70;99.90;;;;;;5073751;28;20044;-69
2022/10/26 04:41:50;;;;;;;28.10;12.18;;;9.70;99.90;;;;;;5074123;28;20048;-69
2022/10/26 04:44:16;;;;;;;24.80;11.90;;;9.80;99.90;;;;;;5073988;28;20396;-69
2022/10/26 04:46:41;;;;;;;26.05;12.10;;;9.80;99.90;;;;;;5073699;28;20095;-69
2022/10/26 04:49:07;;;;;;;24.42;10.07;;;9.80;99.90;;;;;;5075159;28;20426;-70
2022/10/26 04:51:33;;;;;;;28.52;12.60;;;9.80;99.90;;;;;;5074427;28;20052;-69
2022/10/26 04:53:59;;;;;;;27.05;12.45;;;9.80;99.90;;;;;;5074997;28;20472;-69
2022/10/26 04:56:24;;;;;;;23.67;11.73;;;9.80;99.90;;;;;;5074890;28;20499;-70
2022/10/26 04:58:53;;;;;;;28.33;11.77;;;9.80;99.90;;;;;;5073740;28;20048;-71
2022/10/26 05:01:18;;;;;;;27.33;11.93;;;9.80;99.90;;;;;;5073529;28;20394;-70
2022/10/26 05:03:49;;;;;;;24.48;11.63;;;9.90;99.90;;;;;;5073686;28;20044;-70
2022/10/26 05:06:15;;;;;;;25.13;11.48;;;9.80;99.90;;;;;;5074063;28;20044;-70
2022/10/26 05:08:40;;;;;;;27.42;12.10;;;9.90;99.90;;;;;;5024184;28;20055;-70
2022/10/26 05:11:06;;;;;;;28.35;11.20;;;9.80;99.90;;;;;;5074139;28;20052;-71
2022/10/26 05:13:32;;;;;;;26.23;11.35;;;9.90;99.90;;;;;;5074386;28;20441;-75
2022/10/26 05:15:58;;;;;;;23.95;10.50;;;9.90;99.90;;;;;;5073817;28;20054;-70
2022/10/26 05:18:23;;;;;;;22.63;11.50;;;9.90;99.90;;;;;;5073472;28;20044;-70
2022/10/26 05:20:52;;;;;;;27.38;11.20;;;10.00;99.90;;;;;;5074518;28;20101;-69
2022/10/26 05:23:18;;;;;;;23.95;10.73;;;9.90;99.90;;;;;;5074602;28;20548;-70
2022/10/26 05:25:44;;;;;;;26.90;10.55;;;10.00;99.90;;;;;;5073289;28;20127;-70
2022/10/26 05:28:14;;;;;;;23.33;10.25;;;10.00;99.90;;;;;;5040138;28;20056;-70
2022/10/26 05:30:41;;;;;;;23.92;10.82;;;10.00;99.90;;;;;;5056028;28;20058;-75
2022/10/26 05:33:09;;;;;;;24.42;10.93;;;10.00;99.90;;;;;;5073234;28;20118;-71
2022/10/26 05:35:36;;;;;;;19.58;10.38;;;10.00;99.90;;;;;;5073188;28;20543;-74
2022/10/26 05:38:16;;;;;;;20.93;10.17;;;10.00;99.90;;;;;;5056538;28;20049;-69
2022/10/26 05:40:53;;;;;;;24.13;9.70;;;10.10;99.90;;;;;;5073089;28;20127;-69
2022/10/26 05:43:20;;;;;;;22.65;10.38;;;10.10;99.90;;;;;;5056857;28;20049;-70
2022/10/26 05:45:46;;;;;;;23.95;9.95;;;10.10;99.90;;;;;;5072888;28;20048;-67
2022/10/26 05:48:12;;;;;;;19.40;10.25;;;10.20;99.90;;;;;;5073274;28;20068;-68
2022/10/26 05:50:38;;;;;;;19.40;9.80;;;10.10;99.90;;;;;;5056942;28;20044;-72
2022/10/26 05:53:03;;;;;;;21.42;9.70;;;10.20;99.90;;;;;;5073419;28;20075;-68
2022/10/26 05:55:29;;;;;;;25.35;9.45;;;10.20;99.90;;;;;;5073954;28;20434;-69
2022/10/26 05:57:56;;;;;;;21.50;10.00;;;10.20;99.90;;;;;;5072298;28;20603;-75
2022/10/26 06:00:26;;;;;;;20.00;9.60;;;10.20;99.90;;;;;;5056656;28;20055;-70
2022/10/26 06:03:45;;;;;;;17.63;9.32;;;10.30;99.90;;;;;;5039981;28;20384;-70
2022/10/26 06:06:12;;;;;;;15.65;7.90;;;10.30;99.90;;;;;;4995514;28;20196;-70
2022/10/26 06:08:38;;;;;;;19.15;8.35;;;10.40;99.90;;;;;;5065851;28;20057;-74
2022/10/26 06:11:05;;;;;;;21.48;9.38;;;10.40;99.90;;;;;;5072505;28;20045;-70
2022/10/26 06:13:32;;;;;;;22.35;9.48;;;10.40;99.90;;;;;;5071709;28;20392;-71
2022/10/26 06:16:21;;;;;;;22.33;9.57;;;10.30;99.90;;;;;;5072050;28;20040;-71
2022/10/26 06:19:13;;;;;;;23.08;9.98;;;10.30;99.90;;;;;;5056464;28;20048;-70
2022/10/26 06:22:01;;;;;;;21.73;9.20;;;10.30;99.90;;;;;;5055352;28;20063;-71
2022/10/26 06:24:52;;;;;;;20.40;8.05;;;10.20;99.90;;;;;;5016608;28;20099;-71
2022/10/26 06:27:18;;;;;;;16.80;9.05;;;10.30;99.90;;;;;;5055297;28;20480;-71
2022/10/26 06:30:02;;;;;;;18.75;8.90;;;10.20;99.90;;;;;;5055098;28;20045;-70
2022/10/26 06:32:28;;;;;;;17.98;8.93;;;10.20;99.90;;;;;;5072674;28;20538;-70
2022/10/26 06:35:20;;;;;;;23.05;8.73;;;10.20;99.90;;;;;;5071908;28;20083;-70
2022/10/26 06:37:47;;;;;;;22.40;9.93;;;10.10;99.90;;;;;;5071853;28;20048;-70
2022/10/26 06:40:15;;;;;;;17.40;8.75;;;10.10;99.90;;;;;;5055788;28;20121;-69
2022/10/26 06:42:41;;;;;;;22.77;8.88;;;10.10;99.90;;;;;;5073036;28;20045;-70
2022/10/26 06:45:14;;;;;;;22.47;8.90;;;10.10;99.90;;;;;;5055320;28;20437;-70
2022/10/26 06:47:54;;;;;;;17.55;8.15;;;10.10;99.90;;;;;;5073286;28;20075;-70
2022/10/26 06:50:33;;;;;;;23.27;8.35;;;10.10;99.90;;;;;;5073277;28;20416;-70
2022/10/26 06:53:21;;;;;;;19.20;8.38;;;10.20;99.90;;;;;;5072141;28;20147;-70
2022/10/26 06:55:49;;;;;;;17.30;8.25;;;10.20;99.90;;;;;;5072074;28;20063;-71
2022/10/26 06:58:24;;;;;;;19.85;8.52;;;10.20;99.90;;;;;;5073612;28;20333;-70
2022/10/26 07:00:53;;;;;;;16.35;7.90;;;10.30;99.90;;;;;;5073634;28;20391;-71
2022/10/26 07:03:19;;;;;;;16.08;8.57;;;10.30;99.90;;;;;;5072809;28;20071;-69
2022/10/26 07:05:45;;;;;;;21.63;9.13;;;10.40;99.90;;;;;;5072126;28;20036;-70
2022/10/26 07:08:11;;;;;;;18.25;8.20;;;10.50;99.90;;;;;;5055502;28;20048;-69
2022/10/26 07:10:41;;;;;;;19.37;8.27;;;10.60;99.90;;;;;;5072797;28;20044;-70
2022/10/26 07:13:10;;;;;;;17.23;7.78;;;10.70;99.90;;;;;;5073314;28;20439;-69
2022/10/26 07:15:37;;;;;;;17.95;8.13;;;10.80;99.90;;;;;;5072741;28;20542;-74
2022/10/26 07:18:06;;;;;;;;;;;10.80;99.90;;;;;;5072687;28;20040;-69
2022/10/26 07:20:36;;;;;;;21.42;7.90;;;10.90;99.90;;;;;;5055137;28;19927;-69
2022/10/26 07:23:02;;;;;;;15.48;7.43;;;10.90;99.90;;;;;;5073709;28;20126;-70
2022/10/26 07:25:28;;;;;;;16.25;7.85;;;10.90;99.90;;;;;;5074701;28;20036;-71
2022/10/26 07:27:58;;;;;;;13.27;6.85;;;11.00;99.90;;;;;;5075865;28;20091;-70
2022/10/26 07:30:25;;;;;;;19.40;7.78;;;11.00;99.90;;;;;;5076175;28;20064;-71
2022/10/26 07:32:57;;;;;;;;;;;11.10;99.90;;;;;;5059654;28;20056;-70
2022/10/26 07:35:23;;;;;;;18.42;7.55;;;11.10;99.90;;;;;;5076144;28;20272;-70
2022/10/26 07:37:48;;;;;;;14.45;6.80;;;11.20;99.90;;;;;;5076299;28;20040;-70
2022/10/26 07:40:14;;;;;;;13.77;6.30;;;11.30;99.90;;;;;;5077075;28;20048;-69
2022/10/26 07:42:40;;;;;;;13.32;6.55;;;11.30;99.90;;;;;;5076890;28;20048;-70
2022/10/26 07:45:06;;;;;;;14.93;7.25;;;11.40;99.90;;;;;;5077969;28;20114;-70
2022/10/26 07:47:32;;;;;;;15.30;6.68;;;11.50;99.90;;;;;;5059013;28;20052;-70
2022/10/26 07:49:57;;;;;;;13.52;6.65;;;11.50;99.90;;;;;;5075873;28;20128;-70
2022/10/26 07:52:23;;;;;;;13.30;5.82;;;11.90;99.90;;;;;;5075645;28;20044;-71
2022/10/26 07:54:49;;;;;;;12.18;6.10;;;11.80;99.90;;;;;;5075210;28;20044;-70
2022/10/26 07:57:16;;;;;;;14.40;5.63;;;11.90;99.90;;;;;;5074840;28;20047;-70
2022/10/26 07:59:42;;;;;;;14.75;5.75;;;12.00;99.90;;;;;;5074927;28;20052;-71
2022/10/26 08:02:08;;;;;;;11.38;5.18;;;12.10;99.90;;;;;;5058828;28;20047;-71
2022/10/26 08:04:34;;;;;;;15.80;5.63;;;12.20;99.90;;;;;;5074836;28;20053;-71
2022/10/26 08:07:00;;;;;;;15.30;5.32;;;12.30;99.90;;;;;;5074609;28;20044;-72
2022/10/26 08:09:26;;;;;;;16.73;6.15;;;12.50;99.90;;;;;;5057747;28;20076;-71
2022/10/26 08:11:51;;;;;;;10.38;5.07;;;12.60;99.90;;;;;;5074437;28;20040;-71
2022/10/26 08:14:17;;;;;;;13.95;5.07;;;12.70;99.90;;;;;;5074932;28;20053;-71
2022/10/26 08:16:43;;;;;;;13.38;5.07;;;12.80;99.90;;;;;;5075149;28;20048;-70
2022/10/26 08:19:08;;;;;;;11.57;5.25;;;12.90;99.90;;;;;;5075858;28;20407;-69
2022/10/26 08:21:34;;;;;;;12.70;4.97;;;13.00;99.90;;;;;;5075704;28;20056;-71
2022/10/26 08:24:00;;;;;;;10.95;5.13;;;13.10;99.90;;;;;;5075091;28;20040;-71
2022/10/26 08:26:26;;;;;;;11.15;5.10;;;13.00;99.90;;;;;;5075481;28;20053;-70
2022/10/26 08:28:52;;;;;;;12.15;5.07;;;13.00;99.90;;;;;;5075478;28;20405;-70
2022/10/26 08:31:17;;;;;;;10.75;5.15;;;12.90;99.90;;;;;;5075256;28;20056;-70
2022/10/26 08:33:43;;;;;;;11.57;5.10;;;12.80;99.90;;;;;;5074420;28;20048;-71
2022/10/26 08:36:10;;;;;;;12.30;5.25;;;12.80;99.90;;;;;;5075392;28;20041;-73
2022/10/26 08:38:35;;;;;;;12.80;5.45;;;12.90;99.90;;;;;;5073761;28;20090;-71
2022/10/26 08:41:10;;;;;;;14.15;5.13;;;12.90;99.90;;;;;;5074122;28;20048;-73
2022/10/26 08:43:51;;;;;;;11.32;4.85;;;13.00;99.90;;;;;;5074586;28;20048;-69
2022/10/26 08:46:24;;;;;;;17.90;4.97;;;13.00;99.90;;;;;;5075656;28;20044;-71
2022/10/26 08:49:07;;;;;;;11.43;4.68;;;13.10;99.90;;;;;;5075678;28;20056;-73
2022/10/26 08:51:36;;;;;;;8.35;4.55;;;13.20;99.90;;;;;;5075915;28;20053;-70
2022/10/26 08:54:13;;;;;;;12.07;4.25;;;13.30;99.90;;;;;;5074900;28;20067;-71
2022/10/26 08:56:42;;;;;;;11.07;4.07;;;13.50;99.90;;;;;;5057477;28;20562;-70
2022/10/26 08:59:45;;;;;;;14.57;4.32;;;13.60;99.90;;;;;;5056910;28;20499;-69
2022/10/26 09:02:16;;;;;;;10.68;4.05;;;13.70;99.90;;;;;;5074744;28;20045;-69
2022/10/26 09:04:43;;;;;;;8.55;3.67;;;13.90;99.90;;;;;;5075311;28;20044;-69
2022/10/26 09:07:12;;;;;;;9.63;3.80;;;14.00;99.90;;;;;;5075261;28;20384;-72
2022/10/26 09:09:43;;;;;;;9.70;3.53;;;14.10;99.90;;;;;;5075173;28;20082;-70
2022/10/26 09:12:40;;;;;;;9.30;3.30;;;14.30;99.90;;;;;;5073811;28;20131;-69
2022/10/26 09:15:28;;;;;;;7.97;3.30;;;14.40;99.90;;;;;;5074726;28;20389;-69
2022/10/26 09:18:21;;;;;;;7.95;3.20;;;14.50;99.90;;;;;;5073719;28;20091;-71
2022/10/26 09:20:59;;;;;;;7.82;2.95;;;14.60;99.90;;;;;;5073661;28;20044;-70
2022/10/26 09:23:34;;;;;;;9.70;3.28;;;14.70;99.90;;;;;;5074268;28;20119;-70
2022/10/26 09:26:01;;;;;;;8.55;2.83;;;14.70;99.90;;;;;;5074001;28;20048;-70
2022/10/26 09:28:36;;;;;;;13.57;3.47;;;14.80;99.90;;;;;;5074543;28;20058;-71
2022/10/26 09:31:03;;;;;;;7.18;2.92;;;14.80;99.90;;;;;;5074603;28;20067;-70
2022/10/26 09:33:32;;;;;;;9.85;3.20;;;;;;;;;;5056677;28;20048;-70
2022/10/26 09:36:01;;;;;;;10.35;3.00;;;15.10;99.90;;;;;;5074237;28;20036;-72
2022/10/26 09:38:56;;;;;;;9.18;3.38;;;15.20;99.90;;;;;;5073090;28;20044;-71
2022/10/26 09:41:46;;;;;;;10.88;3.03;;;15.40;99.90;;;;;;5074972;28;20477;-70
2022/10/26 09:44:24;;;;;;;8.07;3.22;;;15.60;99.90;;;;;;5075027;28;20173;-71
2022/10/26 09:47:24;;;;;;;9.45;3.13;;;15.90;99.90;;;;;;5073980;28;20395;-72
2022/10/26 09:49:55;;;;;;;8.07;3.67;;;16.20;99.90;;;;;;5071846;28;20453;-70
2022/10/26 09:52:20;;;;;;;10.90;3.45;;;16.30;99.90;;;;;;5056350;28;20052;-72
2022/10/26 09:54:46;;;;;;;9.75;3.05;;;16.40;99.90;;;;;;5056168;28;20051;-73
2022/10/26 09:57:16;;;;;;;9.38;3.45;;;16.40;99.90;;;;;;5073345;28;20048;-70
2022/10/26 09:59:42;;;;;;;7.93;3.40;;;16.40;99.90;;;;;;5072912;28;20055;-72
2022/10/26 10:02:42;;;;;;;9.57;3.20;;;16.40;99.90;;;;;;5073109;28;20346;-71
2022/10/26 10:05:22;;;;;;;9.15;2.83;;;16.40;99.90;;;;;;5073644;28;20042;-71
2022/10/26 10:07:48;;;;;;;9.60;3.53;;;16.50;99.90;;;;;;5073104;28;20424;-72
2022/10/26 10:10:21;;;;;;;8.07;2.47;;;16.50;99.90;;;;;;5072694;28;20044;-73
2022/10/26 10:12:51;;;;;;;7.63;2.00;;;16.60;99.90;;;;;;5073404;28;20048;-70
2022/10/26 10:15:24;;;;;;;9.95;2.60;;;16.60;99.90;;;;;;5073651;28;20403;-72
2022/10/26 10:17:56;;;;;;;12.02;2.70;;;16.70;99.90;;;;;;5073340;28;20048;-71
2022/10/26 10:20:30;;;;;;;8.25;2.13;;;16.80;99.90;;;;;;5072389;28;20051;-72
2022/10/26 10:22:58;;;;;;;7.32;2.10;;;16.80;99.90;;;;;;5073548;28;20106;-71
2022/10/26 10:25:38;;;;;;;9.60;2.42;;;16.90;99.90;;;;;;5072128;28;20049;-71
2022/10/26 10:28:25;;;;;;;10.20;2.15;;;17.00;99.90;;;;;;5072902;28;20387;-71
2022/10/26 10:30:53;;;;;;;;;;;17.00;99.90;;;;;;5073594;28;20079;-71
2022/10/26 10:33:18;;;;;;;9.07;2.35;;;17.10;99.90;;;;;;5072760;28;19920;-72
2022/10/26 10:35:50;;;;;;;6.50;2.38;;;17.10;99.90;;;;;;5072922;28;20040;-71
2022/10/26 10:38:19;;;;;;;9.32;2.38;;;17.10;99.90;;;;;;5072961;28;20045;-71
2022/10/26 10:40:59;;;;;;;6.25;2.25;;;17.10;99.90;;;;;;5072699;28;20040;-71
2022/10/26 10:43:26;;;;;;;7.25;2.15;;;17.10;99.90;;;;;;5071708;28;20053;-74
2022/10/26 10:45:56;;;;;;;10.25;2.42;;;17.20;99.90;;;;;;5055266;28;20128;-71
2022/10/26 10:48:25;;;;;;;13.02;2.30;;;17.20;99.90;;;;;;5072936;28;20079;-71
2022/10/26 10:50:56;;;;;;;7.65;2.30;;;17.20;99.90;;;;;;5071368;28;20488;-72
2022/10/26 10:53:43;;;;;;;7.45;2.05;;;17.30;99.90;;;;;;5055129;28;20059;-71
2022/10/26 10:56:32;;;;;;;4.47;1.83;;;17.40;99.90;;;;;;5055772;28;20119;-71
2022/10/26 10:59:01;;;;;;;10.75;2.20;;;17.50;99.90;;;;;;5071927;28;20052;-71
2022/10/26 11:01:34;;;;;;;8.57;2.10;;;17.50;99.90;;;;;;5071650;28;20375;-71
2022/10/26 11:04:14;;;;;;;6.93;2.30;;;17.60;99.90;;;;;;5071829;28;20049;-72
2022/10/26 11:06:42;;;;;;;10.13;2.08;;;17.60;99.90;;;;;;5071836;28;20118;-71
2022/10/26 11:09:12;;;;;;;14.32;2.55;;;17.70;99.90;;;;;;5073205;28;20053;-73
2022/10/26 11:11:56;;;;;;;12.75;2.53;;;17.80;99.90;;;;;;5072590;28;20416;-73
2022/10/26 11:14:36;;;;;;;9.90;2.10;;;17.80;99.90;;;;;;5055044;28;20071;-71
2022/10/26 11:17:23;;;;;;;12.43;5.25;;;17.90;99.90;;;;;;5072201;28;20063;-72
2022/10/26 11:20:02;;;;;;;5.90;1.77;;;17.90;99.90;;;;;;5073483;28;20052;-70
2022/10/26 11:22:42;;;;;;;6.70;1.73;;;17.90;99.90;;;;;;5072267;28;20467;-73
2022/10/26 11:25:23;;;;;;;8.52;2.63;;;18.00;99.90;;;;;;5071668;28;20044;-79
2022/10/26 11:27:54;;;;;;;5.60;1.83;;;17.90;99.90;;;;;;5072322;28;20052;-71
2022/10/26 11:30:24;;;;;;;7.85;2.20;;;17.90;99.90;;;;;;5072381;28;20199;-71
2022/10/26 11:33:05;;;;;;;8.73;1.90;;;17.90;99.90;;;;;;5055125;28;20135;-70
2022/10/26 11:35:54;;;;;;;7.78;1.90;;;18.00;99.90;;;;;;5073308;28;20119;-71
2022/10/26 11:38:46;;;;;;;12.88;2.05;;;18.00;99.90;;;;;;5072518;28;20051;-71
2022/10/26 11:41:21;;;;;;;6.35;1.75;;;18.10;99.90;;;;;;5065773;28;20048;-73
2022/10/26 11:43:49;;;;;;;8.30;1.65;;;18.10;99.90;;;;;;5054867;28;20048;-70
2022/10/26 11:46:41;;;;;;;7.82;1.52;;;18.10;99.90;;;;;;5054644;28;20063;-72
2022/10/26 11:49:15;;;;;;;8.73;1.80;;;18.10;99.90;;;;;;5071055;28;20048;-71
2022/10/26 11:52:17;;;;;;;6.13;1.98;;;18.20;99.90;;;;;;5072697;28;20383;-72
2022/10/26 11:54:48;;;;;;;7.55;1.52;;;18.20;99.90;;;;;;5071228;28;20127;-72
2022/10/26 11:57:15;;;;;;;9.07;1.90;;;18.20;99.90;;;;;;5072991;28;20048;-71
2022/10/26 12:00:16;;;;;;;6.10;1.60;;;18.10;99.90;;;;;;5071249;28;20055;-73
2022/10/26 12:02:46;;;;;;;6.05;1.70;;;18.20;99.90;;;;;;5060600;28;20084;-72
2022/10/26 12:05:14;;;;;;;9.23;2.20;;;18.20;99.90;;;;;;5072441;28;20037;-77
2022/10/26 12:07:47;;;;;;;7.47;1.90;;;18.20;99.90;;;;;;5072165;28;20431;-72
2022/10/26 12:10:34;;;;;;;8.43;2.10;;;18.20;99.90;;;;;;5071974;28;20500;-80
2022/10/26 12:13:18;;;;;;;7.53;2.30;;;18.20;99.90;;;;;;5073485;28;20064;-72
2022/10/26 12:16:00;;;;;;;7.53;2.10;;;18.30;99.90;;;;;;5058306;28;20136;-74
2022/10/26 12:18:52;;;;;;;7.35;2.30;;;18.40;99.90;;;;;;5076465;28;20044;-72
2022/10/26 12:21:18;;;;;;;11.80;2.28;;;18.40;99.90;;;;;;5075735;28;20126;-72
2022/10/26 12:23:54;;;;;;;6.78;1.95;;;18.40;99.90;;;;;;5075720;28;20040;-73
2022/10/26 12:26:23;;;;;;;11.35;1.92;;;18.40;99.90;;;;;;5074621;28;20040;-71
2022/10/26 12:29:13;;;;;;;7.20;2.22;;;18.40;99.90;;;;;;5075005;28;20052;-72
2022/10/26 12:31:57;;;;;;;6.05;2.20;;;18.40;99.90;;;;;;5018877;28;20135;-70
2022/10/26 12:34:29;;;;;;;7.53;2.40;;;18.40;99.90;;;;;;5074284;28;20044;-71
2022/10/26 12:36:55;;;;;;;8.27;2.13;;;18.30;99.90;;;;;;5074516;28;20048;-73
2022/10/26 12:39:43;;;;;;;8.10;2.20;;;18.50;99.90;;;;;;5075576;28;20051;-73
2022/10/26 12:42:09;;;;;;;6.47;2.22;;;18.50;99.90;;;;;;5057778;28;20052;-71
2022/10/26 12:44:41;;;;;;;7.20;2.40;;;18.50;99.90;;;;;;5074171;28;20083;-72
2022/10/26 12:47:27;;;;;;;7.20;2.28;;;18.50;99.90;;;;;;5075859;28;20098;-72
2022/10/26 12:50:00;;;;;;;6.95;2.00;;;18.40;99.90;;;;;;5075411;28;20059;-73
2022/10/26 12:52:43;;;;;;;8.55;2.20;;;18.40;99.90;;;;;;5074148;28;20056;-73
2022/10/26 12:55:12;;;;;;;9.48;2.45;;;18.50;99.90;;;;;;5074369;28;20051;-72
2022/10/26 12:58:04;;;;;;;10.10;2.22;;;18.40;99.90;;;;;;5075024;28;20093;-71
2022/10/26 13:00:34;;;;;;;10.23;2.75;;;18.40;99.90;;;;;;5043439;28;20049;-74
2022/10/26 13:03:51;;;;;;;6.22;2.50;;;18.50;99.90;;;;;;5074327;28;20087;-71
2022/10/26 13:06:28;;;;;;;6.35;2.40;;;18.60;99.90;;;;;;5029782;28;20087;-71
2022/10/26 13:08:56;;;;;;;7.95;2.55;;;18.80;99.90;;;;;;5057408;28;20481;-72
2022/10/26 13:11:41;;;;;;;7.80;2.67;;;18.90;99.90;;;;;;5073674;28;20135;-73
2022/10/26 13:14:26;;;;;;;6.20;2.28;;;18.90;99.90;;;;;;5073714;28;20040;-71
2022/10/26 13:16:52;;;;;;;10.05;2.70;;;18.90;99.90;;;;;;5074501;28;20445;-71
2022/10/26 13:19:38;;;;;;;7.05;2.20;;;18.90;99.90;;;;;;5074784;28;20110;-71
2022/10/26 13:22:04;;;;;;;9.40;2.60;;;18.80;99.90;;;;;;5074034;28;20552;-72
2022/10/26 13:24:32;;;;;;;7.90;2.53;;;18.90;99.90;;;;;;5056790;28;20405;-70
2022/10/26 13:27:04;;;;;;;8.88;2.90;;;19.00;99.90;;;;;;5057087;28;20048;-72
2022/10/26 13:29:31;;;;;;;9.10;2.65;;;19.00;99.90;;;;;;5073660;28;20387;-70
2022/10/26 13:31:58;;;;;;;8.82;2.75;;;19.00;99.90;;;;;;5074522;28;20134;-72
2022/10/26 13:34:30;;;;;;;7.88;2.50;;;19.00;99.90;;;;;;5074369;28;20055;-73
2022/10/26 13:37:19;;;;;;;10.73;2.72;;;18.70;99.90;;;;;;5074527;28;20052;-71
2022/10/26 13:39:47;;;;;;;8.80;2.78;;;18.70;99.90;;;;;;5074723;28;20044;-71